This is the latest recevied weather packets stored in our database for station/object N6WDO. If no packets are shown the sender has not sent any weather packets the latest 10 day(s).
| Time | Temp. | Humidity | Pressure | Rain* | Wind** | Luminosity | Snow |
|---|---|---|---|---|---|---|---|
| 1777407682 | 19.44° C | 55% | 1020.1 hPa | 0 mm | - | 723 W/m² | - |
| 1777407376 | 18.89° C | 57% | 1020.3 hPa | 0 mm | - | 722 W/m² | - |
| 1777407076 | 19.44° C | 56% | 1020.2 hPa | 0 mm | - | 727 W/m² | - |
| 1777406772 | 18.89° C | 58% | 1020.2 hPa | 0 mm | - | 737 W/m² | - |
| 1777406467 | 19.44° C | 54% | 1020.4 hPa | 0 mm | - | 735 W/m² | - |
| 1777406161 | 19.44° C | 53% | 1020.2 hPa | 0 mm | - | 734 W/m² | - |
| 1777405857 | 19.44° C | 55% | 1020.4 hPa | 0 mm | - | 749 W/m² | - |
| 1777405554 | 18.89° C | 54% | 1020.6 hPa | 0 mm | - | 792 W/m² | - |
| 1777405251 | 19.44° C | 53% | 1020.4 hPa | 0 mm | - | 761 W/m² | - |
| 1777404949 | 19.44° C | 55% | 1020.5 hPa | 0 mm | - | 738 W/m² | - |
| 1777404645 | 18.33° C | 59% | 1020.7 hPa | 0 mm | - | 741 W/m² | - |
| 1777404342 | 18.33° C | 57% | 1020.8 hPa | 0 mm | - | 752 W/m² | - |
| 1777404039 | 18.89° C | 55% | 1020.6 hPa | 0 mm | - | 745 W/m² | - |
| 1777403734 | 18.89° C | 59% | 1020.8 hPa | 0 mm | - | 753 W/m² | - |
| 1777403433 | 18.89° C | 54% | 1021 hPa | 0 mm | - | 740 W/m² | - |
| 1777403133 | 18.33° C | 55% | 1020.7 hPa | 0 mm | - | 732 W/m² | - |
| 1777402829 | 17.78° C | 56% | 1021 hPa | 0 mm | - | 746 W/m² | - |
| 1777402526 | 17.78° C | 60% | 1020.9 hPa | 0 mm | - | 740 W/m² | - |
| 1777402223 | 17.22° C | 61% | 1021 hPa | 0 mm | - | 689 W/m² | - |
| 1777401918 | 17.22° C | 60% | 1020.8 hPa | 0 mm | - | 702 W/m² | - |
| 1777401617 | 16.67° C | 61% | 1021 hPa | 0 mm | - | 163 W/m² | - |
| 1777401314 | 16.67° C | 61% | 1020.8 hPa | 0 mm | - | 465 W/m² | - |
| 1777401009 | 17.22° C | 59% | 1021 hPa | 0 mm | - | 223 W/m² | - |
| 1777400705 | 17.78° C | 59% | 1021 hPa | 0 mm | - | 222 W/m² | - |
| 1777400403 | 16.67° C | 64% | 1021.1 hPa | 0 mm | - | 719 W/m² | - |
* Rain latest hour (hover to see other rain measurements)
** Current wind speed in m/s (hover to see current wind gust speed)